Detall de PIREP

Printer-friendly versionPDF version

[2012/12/05 09:51:00]
Flight IATA:CT1005
Pilot Number:042
Company ICAO:CAT
Aircraft Type:B738/F
PAX:98
Departing Airport: LIPZ
Destination Airport: EBBR
Alternate Airport:EHRD
Online: VATSIM
Route:ROKIB UZ906 BZO UL12 MOGTI UP66 KPT UL608 NONKO UZ211 MISGI Z104 GESLO N852 LNO
Flight Level:F350
No Slew and time accel
No pause
Crash detect
Detect pilot in Cockpit between each 30 and 45 minutes
09:51 Zero fuel Weight: 115601 Lbs, Fuel Weight: 46029 Lbs
09:51 VATSIM:LIPZ 050920Z 04004KT CAVOK 05/02 Q1002
09:51 VATSIM:EBBR 050920Z 25004KT 5000 -RA SCT006 BKN010 03/02 Q1003 BECMG SCT010 BKN020
09:51 VOICE CATALONIAN/EU TOUR
09:56 Parking Brakes off
09:59 Take-off
09:59 Take off Weight: 160934 Lbs
09:59 Wind: 039º @ 004 Knots Heading: 041º
09:59 POS N45º 30´ 42´´ E012º 21´ 38´´
09:59 Gear Up: 181 Knots
09:59 Flaps:5 at 181 Knots
09:59 Flaps:4 at 182 Knots
10:00 Flaps:3 at 178 Knots
10:00 Flaps:2 at 144 Knots
10:00 Flaps:1 at 221 Knots
10:01 Flaps:0 at 234 Knots
10:14 Wind:317º@023 Knots Heading: 333º Ground Speed: 426 Knots Altitude 26105 ft
10:22 TOC
10:22 Fuel Weight: 40894 Lb
10:29 Wind:292º@023 Knots Heading: 323º Ground Speed: 424 Knots Altitude 35433 ft
10:44 Wind:305º@023 Knots Heading: 334º Ground Speed: 423 Knots Altitude 35695 ft
10:59 Wind:321º@022 Knots Heading: 278º Ground Speed: 426 Knots Altitude 35669 ft
11:02 TOD
11:02 Fuel Weight: 37390 Lb
11:14 Wind:298º@023 Knots Heading: 308º Ground Speed: 358 Knots Altitude 14911 ft
11:16 Flaps:1 at 312 Knots
11:16 Flaps:0 at 310 Knots
11:19 Flaps:1 at 182 Knots
11:19 Flaps:2 at 182 Knots
11:20 Flaps:3 at 179 Knots
11:21 Flaps:4 at 178 Knots
11:28 Gear Down: 186 Knots
11:28 Flaps:5 at 186 Knots
11:28 Flaps:7 at 186 Knots
11:28 Flaps:8 at 182 Knots
11:29 Wind:302º@005 Knots Heading: 246º Ground Speed: 115 Knots Altitude 1991 ft
11:31 TouchDown:Rate -211 ft/min Speed: 140 Knots
11:31 VATSIM:EBBR 051050Z 23005KT 6000 FEW004 BKN007 02/01 Q1004 NOSIG
11:31 Land
11:31 Wind:229º@003 Knots
11:31 Heading: 245º
11:31 Flight Duration: 01:32
11:31 Landing Weight: 151095 Lbs
11:31 POS N50º 54´ 21´´ E004º 28´ 53´´
11:33 Parking brakes on
11:33 Block to Block Duration: 01:37
11:33 Final Fuel: 35293 Lbls
11:33 Spent Fuel: 10736 Lbls
11:33 Flight Length: 451 NM
11:33 TOD Land Length: 134 NM

Exportar CSV

Powered by Drupal - Modified by Danger4k